Time;durP1;ratioP1;P1;durP2;ratioP2;P2;SDS_P1;SDS_P2;PMS_P1;PMS_P2;Temp;Humidity;BMP_temperature;BMP_pressure;BME280_temperature;BME280_humidity;BME280_pressure;Samples;Min_cycle;Max_cycle;Signal;HPM_P1;HPM_P2
2021/03/23 00:02:18;;;;;;;;;;;;;;;29.76;19.52;100256.44;5078893;28;843;-33
2021/03/23 00:04:43;;;;;;;;;;;;;;;29.96;19.44;100253.66;5078852;28;787;-35
2021/03/23 00:07:08;;;;;;;;;;;;;;;29.98;19.20;100254.25;5078087;28;1969;-36
2021/03/23 00:09:34;;;;;;;;;;;;;;;29.74;19.48;100248.53;5073357;28;1202;-35
2021/03/23 00:11:59;;;;;;;;;;;;;;;29.36;20.00;100247.34;5058711;28;768;-35
2021/03/23 00:14:24;;;;;;;;;;;;;;;29.38;20.26;100247.94;5058126;28;956;-34
2021/03/23 00:16:49;;;;;;;;;;;;;;;29.67;20.03;100243.13;5058805;28;763;-36
2021/03/23 00:19:15;;;;;;;;;;;;;;;29.84;19.96;100242.66;5072192;28;919;-36
2021/03/23 00:21:40;;;;;;;;;;;;;;;29.22;20.67;100249.22;5077969;28;763;-35
2021/03/23 00:24:06;;;;;;;;;;;;;;;29.62;20.23;100251.06;5077239;28;831;-36
2021/03/23 00:26:31;;;;;;;;;;;;;;;29.87;19.87;100253.06;5078300;28;1906;-35
2021/03/23 00:28:57;;;;;;;;;;;;;;;29.66;19.98;100259.59;5059504;28;979;-35
2021/03/23 00:31:30;;;;;;;;;;;;;;;29.40;20.33;100258.56;5078093;28;1236;-35
2021/03/23 00:33:58;;;;;;;;;;;;;;;29.82;19.82;100274.56;5078379;28;859;-35
2021/03/23 00:36:25;;;;;;;;;;;;;;;29.95;19.67;100279.09;5077228;28;861;-36
2021/03/23 00:38:50;;;;;;;;;;;;;;;30.01;19.60;100266.59;5060635;28;747;-36
2021/03/23 00:41:16;;;;;;;;;;;;;;;29.76;20.12;100259.16;5059914;28;787;-36
2021/03/23 00:43:41;;;;;;;;;;;;;;;29.01;21.06;100251.09;5077580;28;835;-35
2021/03/23 00:46:06;;;;;;;;;;;;;;;29.61;20.26;100252.13;5059369;28;1909;-35
2021/03/23 00:48:32;;;;;;;;;;;;;;;29.92;19.68;100257.84;5057440;28;828;-35
2021/03/23 00:50:57;;;;;;;;;;;;;;;30.02;19.69;100252.81;5057749;28;760;-36
2021/03/23 00:53:22;;;;;;;;;;;;;;;28.84;21.45;100242.53;5057406;28;890;-35
2021/03/23 00:55:48;;;;;;;;;;;;;;;29.77;20.04;100247.25;5057764;28;792;-36
2021/03/23 00:58:13;;;;;;;;;;;;;;;29.58;20.08;100245.19;5057427;28;807;-36
2021/03/23 01:00:39;;;;;;;;;;;;;;;29.46;20.49;100253.13;5071590;28;959;-36
2021/03/23 01:03:04;;;;;;;;;;;;;;;29.75;20.22;100254.75;5077521;28;838;-35
2021/03/23 01:05:30;;;;;;;;;;;;;;;29.96;19.96;100256.38;5077454;28;1963;-36
2021/03/23 01:07:55;;;;;;;;;;;;;;;29.98;19.67;100251.56;5077131;28;827;-35
2021/03/23 01:10:21;;;;;;;;;;;;;;;29.65;20.07;100247.06;5065758;28;1270;-35
2021/03/23 01:12:46;;;;;;;;;;;;;;;29.04;20.90;100239.03;5057537;28;816;-36
2021/03/23 01:15:12;;;;;;;;;;;;;;;29.67;20.39;100250.41;5056825;28;1018;-35
2021/03/23 01:17:38;;;;;;;;;;;;;;;29.90;19.97;100238.22;5057116;28;1478;-36
2021/03/23 01:20:07;;;;;;;;;;;;;;;29.97;19.78;100244.47;5057640;28;815;-36
2021/03/23 01:22:32;;;;;;;;;;;;;;;29.54;20.38;100252.09;5057323;28;743;-35
2021/03/23 01:24:57;;;;;;;;;;;;;;;29.84;19.82;100253.50;5056926;28;1961;-35
2021/03/23 01:27:23;;;;;;;;;;;;;;;29.71;19.76;100254.38;5057178;28;811;-35
2021/03/23 01:29:48;;;;;;;;;;;;;;;29.19;20.72;100252.34;5064002;28;952;-35
2021/03/23 01:32:13;;;;;;;;;;;;;;;29.80;20.13;100253.09;5076888;28;1217;-35
2021/03/23 01:34:38;;;;;;;;;;;;;;;29.98;19.91;100253.44;5076736;28;870;-36
2021/03/23 01:37:04;;;;;;;;;;;;;;;30.05;19.59;100268.63;5076200;28;772;-35
2021/03/23 01:39:29;;;;;;;;;;;;;;;29.70;20.33;100253.53;5059086;28;804;-35
2021/03/23 01:41:54;;;;;;;;;;;;;;;29.88;19.64;100267.47;5077074;28;859;-35
2021/03/23 01:44:20;;;;;;;;;;;;;;;29.63;20.18;100265.44;5072227;28;1002;-35
2021/03/23 01:46:48;;;;;;;;;;;;;;;29.51;20.40;100276.88;5056735;28;1985;-35
2021/03/23 01:49:14;;;;;;;;;;;;;;;29.92;19.83;100255.13;5056748;28;808;-35
2021/03/23 01:51:40;;;;;;;;;;;;;;;30.04;19.54;100253.44;5055924;28;832;-35
2021/03/23 01:54:07;;;;;;;;;;;;;;;30.06;19.84;100251.31;5057161;28;780;-34
2021/03/23 01:56:33;;;;;;;;;;;;;;;29.84;19.70;100249.94;5039228;28;748;-34
2021/03/23 01:58:58;;;;;;;;;;;;;;;29.31;20.59;100241.72;5038832;28;955;-34
2021/03/23 02:01:23;;;;;;;;;;;;;;;29.75;19.90;100243.91;5058915;28;794;-34
2021/03/23 02:03:49;;;;;;;;;;;;;;;29.94;19.83;100244.91;5076582;28;801;-35
2021/03/23 02:06:32;;;;;;;;;;;;;;;30.05;19.88;100243.38;5075915;28;1906;-34
2021/03/23 02:08:58;;;;;;;;;;;;;;;29.88;19.85;100246.59;5076315;28;1140;-34
2021/03/23 02:11:23;;;;;;;;;;;;;;;29.65;20.11;100237.06;5038913;28;756;-34
2021/03/23 02:13:48;;;;;;;;;;;;;;;29.56;20.39;100239.16;5038226;28;794;-34
2021/03/23 02:16:14;;;;;;;;;;;;;;;29.86;19.92;100227.00;5057892;28;944;-34
2021/03/23 02:18:39;;;;;;;;;;;;;;;29.97;19.69;100224.66;5076563;28;752;-35
2021/03/23 02:21:07;;;;;;;;;;;;;;;30.10;19.74;100231.88;5075937;28;807;-35
2021/03/23 02:23:35;;;;;;;;;;;;;;;29.75;20.22;100219.53;5076530;28;818;-35
2021/03/23 02:26:01;;;;;;;;;;;;;;;29.90;19.58;100224.69;5076038;28;1910;-35
2021/03/23 02:28:26;;;;;;;;;;;;;;;29.77;19.54;100220.16;5075859;28;795;-35
2021/03/23 02:30:52;;;;;;;;;;;;;;;29.53;20.36;100214.38;5059654;28;1165;-35
2021/03/23 02:33:17;;;;;;;;;;;;;;;29.88;19.95;100233.03;5056308;28;800;-35
2021/03/23 02:35:42;;;;;;;;;;;;;;;29.98;19.66;100224.44;5056015;28;795;-35
2021/03/23 02:38:08;;;;;;;;;;;;;;;30.08;19.66;100229.41;5055825;28;822;-35
2021/03/23 02:40:33;;;;;;;;;;;;;;;29.46;20.66;100226.03;5056201;28;781;-35
2021/03/23 02:42:58;;;;;;;;;;;;;;;29.85;19.52;100229.91;5055772;28;862;-35
2021/03/23 02:45:23;;;;;;;;;;;;;;;29.68;19.97;100236.66;5068288;28;1917;-35
2021/03/23 02:47:49;;;;;;;;;;;;;;;29.70;19.65;100231.00;5059838;28;1447;-35
2021/03/23 02:50:15;;;;;;;;;;;;;;;29.94;19.48;100234.91;5079707;28;807;-35
2021/03/23 02:52:40;;;;;;;;;;;;;;;30.01;19.66;100215.88;5080225;28;748;-35
2021/03/23 02:55:06;;;;;;;;;;;;;;;30.01;19.27;100218.56;5080411;28;768;-35
2021/03/23 02:57:31;;;;;;;;;;;;;;;29.78;19.64;100221.84;5079639;28;734;-35
2021/03/23 02:59:56;;;;;;;;;;;;;;;29.23;20.62;100202.13;5071186;28;955;-35
2021/03/23 03:02:21;;;;;;;;;;;;;;;29.78;19.81;100216.41;5059873;28;764;-35
2021/03/23 03:04:47;;;;;;;;;;;;;;;29.89;19.68;100221.16;5059532;28;827;-35
2021/03/23 03:07:12;;;;;;;;;;;;;;;30.01;19.45;100236.75;5059714;28;1972;-36
2021/03/23 03:09:37;;;;;;;;;;;;;;;29.29;20.37;100222.97;5065546;28;1148;-36
2021/03/23 03:12:03;;;;;;;;;;;;;;;29.84;19.75;100237.22;5079068;28;943;-36
2021/03/23 03:14:28;;;;;;;;;;;;;;;29.84;19.45;100230.97;5075144;28;959;-36
2021/03/23 03:16:53;;;;;;;;;;;;;;;29.30;20.05;100234.63;5059359;28;562;-36
2021/03/23 03:19:19;;;;;;;;;;;;;;;29.80;19.52;100236.81;5059148;28;803;-36
2021/03/23 03:21:44;;;;;;;;;;;;;;;29.96;19.34;100237.41;5059954;28;727;-36
2021/03/23 03:24:10;;;;;;;;;;;;;;;30.09;19.36;100241.94;5059510;28;852;-35
2021/03/23 03:26:35;;;;;;;;;;;;;;;29.16;20.64;100236.53;5058913;28;1905;-35
2021/03/23 03:29:00;;;;;;;;;;;;;;;29.89;19.56;100244.72;5060277;28;1010;-35
2021/03/23 03:31:26;;;;;;;;;;;;;;;29.92;19.22;100250.56;5079030;28;1054;-35
2021/03/23 03:33:52;;;;;;;;;;;;;;;29.54;19.91;100251.25;5079104;28;786;-35
2021/03/23 03:36:17;;;;;;;;;;;;;;;29.78;19.60;100244.31;5079603;28;791;-35
2021/03/23 03:38:43;;;;;;;;;;;;;;;29.98;19.34;100251.56;5078972;28;571;-35
2021/03/23 03:41:08;;;;;;;;;;;;;;;30.13;19.00;100255.91;5079229;28;803;-35
2021/03/23 03:43:33;;;;;;;;;;;;;;;29.13;20.16;100245.88;5078971;28;767;-35
2021/03/23 03:45:59;;;;;;;;;;;;;;;29.80;19.51;100250.38;5061105;28;1905;-35
2021/03/23 03:48:24;;;;;;;;;;;;;;;29.82;19.20;100259.13;5058862;28;732;-35
2021/03/23 03:50:49;;;;;;;;;;;;;;;29.57;19.62;100265.22;5058730;28;772;-35
2021/03/23 03:53:15;;;;;;;;;;;;;;;29.93;19.23;100276.59;5058977;28;794;-34
2021/03/23 03:55:41;;;;;;;;;;;;;;;30.04;18.99;100266.16;5059021;28;740;-35
2021/03/23 03:58:06;;;;;;;;;;;;;;;30.09;19.00;100277.19;5058289;28;829;-35
2021/03/23 04:00:32;;;;;;;;;;;;;;;29.94;18.98;100281.00;5071997;28;956;-35
2021/03/23 04:02:58;;;;;;;;;;;;;;;29.58;19.24;100276.88;5078828;28;771;-35
2021/03/23 04:05:27;;;;;;;;;;;;;;;29.25;20.25;100281.28;5078474;28;1897;-35
2021/03/23 04:07:52;;;;;;;;;;;;;;;29.63;19.23;100290.66;5078224;28;847;-39
2021/03/23 04:10:18;;;;;;;;;;;;;;;29.57;19.44;100286.91;5067464;28;1199;-34
2021/03/23 04:12:43;;;;;;;;;;;;;;;29.43;19.13;100288.78;5058376;28;794;-35
2021/03/23 04:15:08;;;;;;;;;;;;;;;29.56;18.27;100292.53;5068302;28;928;-36
2021/03/23 04:17:34;;;;;;;;;;;;;;;29.25;18.48;100292.13;5078480;28;744;-46
2021/03/23 04:19:59;;;;;;;;;;;;;;;28.83;19.45;100285.00;5078264;28;747;-35
2021/03/23 04:22:25;;;;;;;;;;;;;;;29.03;19.11;100295.03;5078271;28;811;-35
2021/03/23 04:24:50;;;;;;;;;;;;;;;29.09;18.52;100294.19;5078527;28;795;-44
2021/03/23 04:27:15;;;;;;;;;;;;;;;28.56;19.06;100303.06;5077922;28;1905;-37
2021/03/23 04:29:41;;;;;;;;;;;;;;;28.45;19.44;100302.59;5076242;28;880;-37
2021/03/23 04:32:06;;;;;;;;;;;;;;;28.95;19.15;100306.88;5072901;28;1302;-36
2021/03/23 04:34:31;;;;;;;;;;;;;;;28.58;19.43;100303.66;5078488;28;775;-38
2021/03/23 04:36:57;;;;;;;;;;;;;;;29.20;18.76;100311.72;5078430;28;827;-41
2021/03/23 04:39:22;;;;;;;;;;;;;;;28.56;19.90;100322.81;5078328;28;937;-40
2021/03/23 04:41:47;;;;;;;;;;;;;;;28.58;19.20;100338.84;5077742;28;846;-39
2021/03/23 04:44:13;;;;;;;;;;;;;;;28.78;18.94;100348.94;5077796;28;935;-39
2021/03/23 04:46:38;;;;;;;;;;;;;;;27.93;19.95;100354.34;5077910;28;1972;-40
2021/03/23 04:49:03;;;;;;;;;;;;;;;25.35;18.09;100357.63;5077604;28;779;-38
2021/03/23 04:51:29;;;;;;;;;;;;;;;23.92;18.91;100364.66;5077545;28;878;-41
2021/03/23 04:53:58;;;;;;;;;;;;;;;23.72;19.88;100373.91;5077852;28;857;-38
2021/03/23 04:56:25;;;;;;;;;;;;;;;22.33;21.02;100391.16;5077344;28;760;-39
2021/03/23 04:58:50;;;;;;;;;;;;;;;22.32;19.85;100396.69;5077960;28;783;-38
2021/03/23 05:01:15;;;;;;;;;;;;;;;22.82;18.87;100413.03;5065653;28;1018;-39
2021/03/23 05:03:41;;;;;;;;;;;;;;;25.15;20.33;100425.41;5077310;28;803;-40
2021/03/23 05:06:09;;;;;;;;;;;;;;;26.49;19.28;100434.06;5077430;28;1973;-43
2021/03/23 05:08:36;;;;;;;;;;;;;;;27.08;18.83;100442.31;5077924;28;832;-40
2021/03/23 05:11:01;;;;;;;;;;;;;;;27.33;18.80;100452.75;5059016;28;1135;-40
2021/03/23 05:13:26;;;;;;;;;;;;;;;27.42;18.90;100463.44;5057566;28;819;-41
2021/03/23 05:15:52;;;;;;;;;;;;;;;27.81;18.95;100477.56;5073181;28;951;-35
2021/03/23 05:18:17;;;;;;;;;;;;;;;27.99;18.85;100486.00;5077046;28;776;-35
2021/03/23 05:20:42;;;;;;;;;;;;;;;28.39;18.33;100476.56;5077449;28;755;-36
2021/03/23 05:23:08;;;;;;;;;;;;;;;28.52;18.42;100477.66;5077364;28;783;-36
2021/03/23 05:25:33;;;;;;;;;;;;;;;28.75;18.07;100474.66;5076896;28;1909;-36
2021/03/23 05:27:58;;;;;;;;;;;;;;;28.64;17.84;100478.78;5077288;28;779;-35
2021/03/23 05:30:23;;;;;;;;;;;;;;;28.01;18.85;100487.69;5064744;28;1003;-35
2021/03/23 05:32:49;;;;;;;;;;;;;;;27.74;19.25;100483.72;5038625;28;1071;-36
2021/03/23 05:35:15;;;;;;;;;;;;;;;28.54;18.81;100481.00;5037283;28;847;-37
2021/03/23 05:37:40;;;;;;;;;;;;;;;28.85;18.29;100487.81;5037111;28;851;-36
2021/03/23 05:40:06;;;;;;;;;;;;;;;28.96;18.25;100483.72;5036947;28;729;-39
2021/03/23 05:42:32;;;;;;;;;;;;;;;29.01;18.45;100486.66;5037028;28;834;-36
2021/03/23 05:45:02;;;;;;;;;;;;;;;29.16;18.44;100491.94;5027654;28;1977;-35
2021/03/23 05:47:30;;;;;;;;;;;;;;;29.09;18.20;100488.38;5056403;28;814;-36
2021/03/23 05:49:57;;;;;;;;;;;;;;;28.55;18.88;100485.38;5039448;28;786;-36
2021/03/23 05:52:34;;;;;;;;;;;;;;;27.93;20.19;100483.25;5038955;28;775;-36
2021/03/23 05:55:03;;;;;;;;;;;;;;;28.40;19.54;100462.00;5038564;28;750;-36
2021/03/23 05:57:32;;;;;;;;;;;;;;;28.50;19.41;100477.88;5056702;28;779;-36
2021/03/23 05:59:58;;;;;;;;;;;;;;;29.01;19.23;100478.53;5047295;28;1026;-35
2021/03/23 06:02:23;;;;;;;;;;;;;;;29.39;18.98;100470.94;5018395;28;884;-35
2021/03/23 06:05:04;;;;;;;;;;;;;;;29.34;18.53;100475.09;5036715;28;720;-36
2021/03/23 06:07:35;;;;;;;;;;;;;;;28.78;19.56;100473.44;5018944;28;776;-35
2021/03/23 06:10:00;;;;;;;;;;;;;;;28.92;19.77;100480.56;5028152;28;1121;-39
2021/03/23 06:12:32;;;;;;;;;;;;;;;29.45;19.08;100465.53;5038818;28;765;-36
2021/03/23 06:15:11;;;;;;;;;;;;;;;29.56;19.05;100464.09;5047387;28;1007;-36
2021/03/23 06:17:55;;;;;;;;;;;;;;;29.20;19.01;100430.06;5036104;28;752;-36
2021/03/23 06:20:37;;;;;;;;;;;;;;;27.95;20.73;100460.41;5037007;28;740;-36
2021/03/23 06:23:21;;;;;;;;;;;;;;;28.79;19.63;100461.56;5018982;28;823;-37
2021/03/23 06:25:47;;;;;;;;;;;;;;;29.14;19.46;100466.09;5035959;28;1946;-36
2021/03/23 06:28:31;;;;;;;;;;;;;;;29.45;19.26;100462.84;5036398;28;825;-36
2021/03/23 06:31:19;;;;;;;;;;;;;;;29.17;20.25;100463.81;5054852;28;1242;-36
2021/03/23 06:33:45;;;;;;;;;;;;;;;29.42;19.93;100468.66;5047126;28;1262;-36
2021/03/23 06:36:27;;;;;;;;;;;;;;;28.99;20.23;100460.84;5076143;28;823;-36
2021/03/23 06:38:52;;;;;;;;;;;;;;;28.62;21.55;100456.50;5075959;28;747;-36
2021/03/23 06:41:19;;;;;;;;;;;;;;;28.37;21.90;100459.69;5076595;28;795;-37
2021/03/23 06:43:54;;;;;;;;;;;;;;;28.70;21.58;100455.47;5075996;28;799;-35
2021/03/23 06:46:23;;;;;;;;;;;;;;;28.98;21.72;100457.28;5075730;28;1909;-40
2021/03/23 06:49:07;;;;;;;;;;;;;;;29.27;20.97;100459.88;5076204;28;799;-40
2021/03/23 06:51:32;;;;;;;;;;;;;;;28.58;22.43;100458.75;5076345;28;772;-40
2021/03/23 06:54:13;;;;;;;;;;;;;;;28.79;22.77;100467.81;5075847;28;795;-41
2021/03/23 06:56:38;;;;;;;;;;;;;;;29.62;21.39;100462.47;5058115;28;819;-40
2021/03/23 06:59:14;;;;;;;;;;;;;;;29.64;21.25;100471.22;5056111;28;970;-40
2021/03/23 07:01:42;;;;;;;;;;;;;;;29.04;22.48;100485.44;5055742;28;748;-41
2021/03/23 07:04:17;;;;;;;;;;;;;;;29.38;22.70;100480.94;5055434;28;796;-40
2021/03/23 07:06:42;;;;;;;;;;;;;;;29.55;19.48;100473.25;5055752;28;1909;-42
2021/03/23 07:09:16;;;;;;;;;;;;;;;29.20;18.66;100486.94;5057433;28;1160;-42
2021/03/23 07:12:01;;;;;;;;;;;;;;;29.17;20.28;100484.66;5076046;28;823;-41
2021/03/23 07:14:39;;;;;;;;;;;;;;;29.56;20.10;100490.38;5071378;28;1011;-41
2021/03/23 07:17:11;;;;;;;;;;;;;;;29.63;19.66;100499.38;5055719;28;764;-39
2021/03/23 07:19:47;;;;;;;;;;;;;;;29.36;20.46;100507.44;5055577;28;780;-34
2021/03/23 07:22:17;;;;;;;;;;;;;;;28.82;21.05;100491.78;5056090;28;870;-32
2021/03/23 07:24:49;;;;;;;;;;;;;;;29.53;20.26;100501.63;5055516;28;779;-33
2021/03/23 07:27:16;;;;;;;;;;;;;;;29.58;19.92;100496.41;5055682;28;1910;-32
2021/03/23 07:29:41;;;;;;;;;;;;;;;29.34;20.33;100504.91;5044271;28;964;-32
2021/03/23 07:32:13;;;;;;;;;;;;;;;29.60;20.47;100494.34;5075348;28;1103;-34
2021/03/23 07:34:48;;;;;;;;;;;;;;;29.67;20.27;100497.91;5078305;28;847;-33
2021/03/23 07:37:18;;;;;;;;;;;;;;;29.80;19.58;100488.13;5061531;28;802;-33
2021/03/23 07:39:45;;;;;;;;;;;;;;;29.68;19.79;100491.44;5061199;28;803;-32
2021/03/23 07:42:16;;;;;;;;;;;;;;;29.42;20.52;100486.78;5061491;28;799;-33
2021/03/23 07:44:45;;;;;;;;;;;;;;;29.75;20.18;100482.47;5060740;28;959;-33
2021/03/23 07:47:20;;;;;;;;;;;;;;;29.91;19.58;100478.53;5060922;28;1895;-33
2021/03/23 07:50:05;;;;;;;;;;;;;;;29.81;19.47;100479.78;5061691;28;743;-32
2021/03/23 07:52:54;;;;;;;;;;;;;;;29.29;20.45;100476.75;5078684;28;1161;-33
2021/03/23 07:55:20;;;;;;;;;;;;;;;29.56;20.38;100487.66;5070466;28;1368;-33
2021/03/23 07:57:49;;;;;;;;;;;;;;;29.82;19.96;100486.88;5061531;28;783;-32
2021/03/23 08:00:53;;;;;;;;;;;;;;;29.98;19.53;100482.06;5049393;28;951;-32
2021/03/23 08:03:37;;;;;;;;;;;;;;;29.91;19.71;100476.63;4997178;28;1193;-44
2021/03/23 08:06:21;;;;;;;;;;;;;;;29.38;20.40;100472.81;4997699;28;1902;-45
2021/03/23 08:09:05;;;;;;;;;;;;;;;29.82;19.82;100483.31;5040463;28;938;-33
2021/03/23 08:11:36;;;;;;;;;;;;;;;29.99;19.84;100477.47;5059026;28;814;-35
2021/03/23 08:14:17;;;;;;;;;;;;;;;29.81;19.57;100479.78;5059560;28;1010;-34
2021/03/23 08:16:58;;;;;;;;;;;;;;;29.53;19.79;100480.75;5078358;28;819;-34
2021/03/23 08:19:42;;;;;;;;;;;;;;;29.68;20.36;100477.03;5061040;28;744;-34
2021/03/23 08:22:13;;;;;;;;;;;;;;;29.87;19.81;100463.72;5078424;28;762;-34
2021/03/23 08:24:53;;;;;;;;;;;;;;;29.99;19.59;100463.94;5078306;28;767;-35
2021/03/23 08:27:25;;;;;;;;;;;;;;;29.96;19.45;100448.06;5060517;28;1898;-34
2021/03/23 08:29:50;;;;;;;;;;;;;;;29.73;19.87;100452.06;5052292;28;942;-34
2021/03/23 08:32:34;;;;;;;;;;;;;;;29.80;19.85;100437.44;5058154;28;1047;-33
2021/03/23 08:35:18;;;;;;;;;;;;;;;30.04;19.65;100440.56;5058181;28;837;-33
2021/03/23 08:38:02;;;;;;;;;;;;;;;30.04;19.37;100431.59;5058282;28;821;-33
2021/03/23 08:40:33;;;;;;;;;;;;;;;29.86;19.25;100413.25;5057972;28;815;-34
2021/03/23 08:42:58;;;;;;;;;;;;;;;29.78;19.94;100412.41;5057933;28;878;-34
2021/03/23 08:45:30;;;;;;;;;;;;;;;30.01;19.48;100421.16;5056639;28;1973;-34
2021/03/23 08:48:03;;;;;;;;;;;;;;;30.04;19.38;100399.88;5058185;28;744;-33
2021/03/23 08:50:35;;;;;;;;;;;;;;;29.99;19.54;100415.13;5040405;28;837;-33
2021/03/23 08:53:02;;;;;;;;;;;;;;;28.95;21.08;100412.47;5039776;28;773;-34
2021/03/23 08:55:30;;;;;;;;;;;;;;;29.81;19.89;100416.59;5058054;28;767;-35
2021/03/23 08:57:58;;;;;;;;;;;;;;;29.98;19.72;100416.97;5057654;28;779;-35
2021/03/23 09:00:44;;;;;;;;;;;;;;;29.98;19.37;100410.75;5057385;28;991;-35
2021/03/23 09:03:10;;;;;;;;;;;;;;;30.00;19.15;100404.06;5016808;28;1101;-34
2021/03/23 09:05:50;;;;;;;;;;;;;;;29.84;19.80;100413.47;5057388;28;1951;-36
2021/03/23 09:08:25;;;;;;;;;;;;;;;29.93;19.78;100408.63;5057036;28;776;-35
2021/03/23 09:10:50;;;;;;;;;;;;;;;30.02;19.11;100401.13;5057256;28;1132;-34
2021/03/23 09:13:22;;;;;;;;;;;;;;;30.02;19.25;100412.81;5057337;28;865;-36
2021/03/23 09:15:51;;;;;;;;;;;;;;;28.99;20.40;100414.81;5038193;28;1081;-34
2021/03/23 09:18:16;;;;;;;;;;;;;;;29.64;19.71;100416.19;5056737;28;872;-33
2021/03/23 09:20:42;;;;;;;;;;;;;;;29.95;19.57;100406.56;5057073;28;740;-35
2021/03/23 09:23:26;;;;;;;;;;;;;;;29.98;19.16;100413.44;5057096;28;803;-35
2021/03/23 09:25:56;;;;;;;;;;;;;;;29.67;18.13;100413.88;5055397;28;1967;-39
2021/03/23 09:28:34;;;;;;;;;;;;;;;29.05;19.28;100398.56;5057345;28;783;-36
2021/03/23 09:31:15;;;;;;;;;;;;;;;29.66;18.36;100412.19;5061442;28;996;-42
2021/03/23 09:33:50;;;;;;;;;;;;;;;28.76;19.62;100415.97;5097241;28;770;-41
2021/03/23 09:36:23;;;;;;;;;;;;;;;29.84;18.79;100412.63;5097052;28;885;-43
2021/03/23 09:38:50;;;;;;;;;;;;;;;30.06;18.27;100419.47;5097002;28;783;-46
2021/03/23 09:41:21;;;;;;;;;;;;;;;30.13;18.27;100424.88;5079107;28;759;-46
2021/03/23 09:43:47;;;;;;;;;;;;;;;30.19;18.20;100426.78;5097181;28;787;-43
2021/03/23 09:46:14;;;;;;;;;;;;;;;30.25;18.21;100416.97;5077470;28;1914;-47
2021/03/23 09:48:57;;;;;;;;;;;;;;;30.28;18.25;100421.97;5089495;28;860;-45
2021/03/23 09:51:22;;;;;;;;;;;;;;;30.33;18.47;100413.19;5096683;28;835;-43
2021/03/23 09:53:48;;;;;;;;;;;;;;;30.31;18.23;100426.97;5097005;28;763;-44
2021/03/23 09:56:20;;;;;;;;;;;;;;;30.35;18.31;100418.38;5078654;28;811;-43
2021/03/23 09:58:46;;;;;;;;;;;;;;;30.35;18.34;100421.94;5096687;28;799;-45
2021/03/23 10:01:21;;;;;;;;;;;;;;;30.39;18.32;100419.66;5077377;28;986;-44
2021/03/23 10:03:47;;;;;;;;;;;;;;;30.01;17.21;100410.31;5076034;28;815;-39
2021/03/23 10:06:16;;;;;;;;;;;;;;;29.57;16.13;100413.44;5076130;28;1909;-38
2021/03/23 10:08:49;;;;;;;;;;;;;;;28.95;18.23;100404.34;5076336;28;835;-39
2021/03/23 10:11:15;;;;;;;;;;;;;;;29.70;17.84;100404.50;5114922;28;1147;-44
2021/03/23 10:13:47;;;;;;;;;;;;;;;29.91;17.55;100398.00;5116951;28;739;-39
2021/03/23 10:16:32;;;;;;;;;;;;;;;30.12;17.45;100412.38;5077286;28;926;-39
2021/03/23 10:18:58;;;;;;;;;;;;;;;30.19;17.61;100405.06;5076020;28;871;-41
2021/03/23 10:21:27;;;;;;;;;;;;;;;30.17;17.59;100411.75;5076215;28;811;-42
2021/03/23 10:23:55;;;;;;;;;;;;;;;30.24;17.75;100403.63;5076429;28;779;-46
2021/03/23 10:26:21;;;;;;;;;;;;;;;30.30;17.62;100403.59;5075982;28;1965;-42
2021/03/23 10:28:51;;;;;;;;;;;;;;;30.39;17.66;100406.06;5074536;28;1385;-39
2021/03/23 10:31:35;;;;;;;;;;;;;;;30.39;17.89;100395.22;5095666;28;1240;-41
2021/03/23 10:34:04;;;;;;;;;;;;;;;30.35;17.80;100402.09;5096291;28;814;-41
2021/03/23 10:36:40;;;;;;;;;;;;;;;30.06;17.11;100399.66;5096091;28;887;-43
2021/03/23 10:39:05;;;;;;;;;;;;;;;29.93;17.08;100398.63;5078318;28;818;-44
2021/03/23 10:41:32;;;;;;;;;;;;;;;29.73;17.24;100414.91;5078237;28;1308;-43
2021/03/23 10:44:14;;;;;;;;;;;;;;;29.23;17.99;100412.56;5095244;28;985;-44
2021/03/23 10:46:40;;;;;;;;;;;;;;;29.31;18.08;100404.25;5058322;28;1906;-42
2021/03/23 10:49:12;;;;;;;;;;;;;;;28.35;18.64;100405.78;5057819;28;981;-42
2021/03/23 10:51:41;;;;;;;;;;;;;;;28.61;18.81;100408.81;5075487;28;793;-42
2021/03/23 10:54:10;;;;;;;;;;;;;;;29.19;17.79;100394.03;5075601;28;1065;-41
2021/03/23 10:56:36;;;;;;;;;;;;;;;29.48;17.37;100409.28;5075655;28;840;-43
2021/03/23 10:59:14;;;;;;;;;;;;;;;30.01;17.30;100400.28;5075548;28;998;-39
2021/03/23 11:01:58;;;;;;;;;;;;;;;30.29;17.03;100398.38;5076026;28;821;-41
2021/03/23 11:04:23;;;;;;;;;;;;;;;30.34;17.17;100401.28;5076251;28;736;-38
2021/03/23 11:06:49;;;;;;;;;;;;;;;30.40;16.95;100394.16;5075413;28;1967;-39
2021/03/23 11:09:16;;;;;;;;;;;;;;;30.47;17.16;100394.13;5080810;28;1112;-45
2021/03/23 11:11:42;;;;;;;;;;;;;;;30.53;17.25;100396.03;5100025;28;850;-39
2021/03/23 11:14:07;;;;;;;;;;;;;;;30.57;17.18;100399.94;5097505;28;1006;-39
2021/03/23 11:16:33;;;;;;;;;;;;;;;30.50;17.30;100394.53;5079912;28;930;-37
2021/03/23 11:19:00;;;;;;;;;;;;;;;30.59;17.18;100392.44;5044721;28;1190;-39
2021/03/23 11:21:26;;;;;;;;;;;;;;;30.61;17.28;100386.78;5079235;28;779;-39
2021/03/23 11:23:52;;;;;;;;;;;;;;;30.61;17.20;100378.63;5079743;28;812;-44
2021/03/23 11:26:24;;;;;;;;;;;;;;;30.55;17.58;100383.88;5061338;28;1955;-39
2021/03/23 11:28:53;;;;;;;;;;;;;;;30.65;17.13;100374.44;5078668;28;831;-43
2021/03/23 11:31:19;;;;;;;;;;;;;;;30.61;17.44;100381.34;5079234;28;1326;-42
2021/03/23 11:33:44;;;;;;;;;;;;;;;30.66;17.51;100376.13;5079356;28;767;-42
2021/03/23 11:36:13;;;;;;;;;;;;;;;30.60;17.56;100377.81;5078979;28;870;-42
2021/03/23 11:38:38;;;;;;;;;;;;;;;30.59;17.42;100387.00;5061901;28;842;-42
2021/03/23 11:41:04;;;;;;;;;;;;;;;30.66;17.30;100387.78;5079170;28;799;-44
2021/03/23 11:43:35;;;;;;;;;;;;;;;30.67;17.55;100380.47;5078767;28;752;-42
2021/03/23 11:46:06;;;;;;;;;;;;;;;30.72;17.44;100382.53;5096673;28;1964;-42
2021/03/23 11:48:39;;;;;;;;;;;;;;;30.59;17.36;100375.31;5099393;28;851;-42
2021/03/23 11:51:04;;;;;;;;;;;;;;;30.61;17.61;100384.06;5098976;28;763;-42
2021/03/23 11:53:29;;;;;;;;;;;;;;;30.65;17.40;100385.28;5099416;28;743;-43
2021/03/23 11:55:55;;;;;;;;;;;;;;;30.73;17.21;100378.81;5099110;28;739;-42
2021/03/23 11:58:20;;;;;;;;;;;;;;;30.72;17.38;100372.53;5099186;28;756;-44
2021/03/23 12:00:46;;;;;;;;;;;;;;;30.58;17.43;100377.19;5083433;28;983;-42
2021/03/23 12:03:12;;;;;;;;;;;;;;;30.65;17.35;100363.56;5078662;28;855;-44
2021/03/23 12:05:38;;;;;;;;;;;;;;;30.65;17.27;100369.84;5077995;28;1976;-42
2021/03/23 12:08:09;;;;;;;;;;;;;;;30.77;17.27;100366.44;5060524;28;1317;-42
2021/03/23 12:10:42;;;;;;;;;;;;;;;30.68;17.12;100372.13;5087948;28;1195;-43
2021/03/23 12:13:24;;;;;;;;;;;;;;;30.78;17.38;100366.22;5100862;28;819;-43
2021/03/23 12:16:08;;;;;;;;;;;;;;;30.76;17.22;100364.78;5084289;28;946;-41
2021/03/23 12:18:34;;;;;;;;;;;;;;;30.72;17.00;100380.66;5098809;28;766;-42
2021/03/23 12:21:00;;;;;;;;;;;;;;;30.65;17.38;100375.28;5098389;28;807;-42
2021/03/23 12:23:26;;;;;;;;;;;;;;;30.67;17.16;100372.34;5080901;28;978;-43
2021/03/23 12:25:52;;;;;;;;;;;;;;;30.61;17.31;100374.06;5098454;28;1976;-41
2021/03/23 12:28:17;;;;;;;;;;;;;;;30.52;17.48;100380.75;5080402;28;827;-42
2021/03/23 12:30:42;;;;;;;;;;;;;;;30.46;17.72;100371.63;5082993;28;996;-41
2021/03/23 12:33:08;;;;;;;;;;;;;;;30.46;17.59;100379.75;5078286;28;763;-41
2021/03/23 12:35:34;;;;;;;;;;;;;;;30.43;17.38;100369.31;5077593;28;816;-38
2021/03/23 12:38:00;;;;;;;;;;;;;;;30.38;17.42;100364.53;5077898;28;755;-42
2021/03/23 12:40:26;;;;;;;;;;;;;;;30.36;17.37;100363.94;5078272;28;752;-40
2021/03/23 12:42:53;;;;;;;;;;;;;;;30.29;17.41;100368.53;5077664;28;748;-39
2021/03/23 12:45:20;;;;;;;;;;;;;;;30.27;17.41;100367.91;5089337;28;1914;-39
2021/03/23 12:47:45;;;;;;;;;;;;;;;30.26;17.58;100385.25;5098239;28;752;-40
2021/03/23 12:50:11;;;;;;;;;;;;;;;28.92;19.07;100366.03;5098070;28;823;-41
2021/03/23 12:52:36;;;;;;;;;;;;;;;29.31;19.07;100369.84;5098192;28;815;-41
2021/03/23 12:55:02;;;;;;;;;;;;;;;29.76;18.34;100365.69;5098174;28;807;-43
2021/03/23 12:57:31;;;;;;;;;;;;;;;30.12;17.98;100354.56;5097471;28;907;-42
2021/03/23 12:59:57;;;;;;;;;;;;;;;30.17;18.08;100368.34;5070585;28;1087;-39
2021/03/23 13:02:24;;;;;;;;;;;;;;;30.48;17.09;100374.13;5077909;28;780;-38
2021/03/23 13:04:49;;;;;;;;;;;;;;;30.42;17.29;100378.50;5076844;28;808;-39